createdAt,value
2022-12-14T00:02:37.691Z,11.95
2022-12-14T00:07:39.726Z,11.40
2022-12-14T00:12:41.797Z,10.73
2022-12-14T00:17:43.887Z,9.60
2022-12-14T00:22:45.972Z,10.02
2022-12-14T00:27:48.176Z,10.48
2022-12-14T00:32:50.176Z,10.15
2022-12-14T00:37:52.173Z,9.60
2022-12-14T00:42:54.356Z,9.93
2022-12-14T00:47:56.571Z,9.68
2022-12-14T00:53:01.902Z,8.77
2022-12-14T00:58:04.107Z,9.15
2022-12-14T01:03:07.156Z,9.68
2022-12-14T01:08:09.291Z,10.00
2022-12-14T01:13:11.428Z,9.50
2022-12-14T01:18:13.498Z,10.27
2022-12-14T01:23:15.517Z,9.10
2022-12-14T01:28:17.531Z,8.63
2022-12-14T01:33:19.566Z,9.05
2022-12-14T01:38:21.587Z,8.90
2022-12-14T01:43:23.954Z,7.63
2022-12-14T01:48:26.199Z,8.82
2022-12-14T01:53:28.718Z,8.32
2022-12-14T01:58:31.069Z,8.98
2022-12-14T02:03:43.794Z,8.57
2022-12-14T02:08:49.513Z,8.40
2022-12-14T02:13:51.805Z,8.27
2022-12-14T02:18:53.916Z,8.23
2022-12-14T02:24:20.739Z,8.75
2022-12-14T02:29:43.845Z,8.80
2022-12-14T02:35:00.198Z,8.80
2022-12-14T02:40:29.591Z,8.27
2022-12-14T02:45:54.115Z,8.68
2022-12-14T02:51:18.413Z,7.70
2022-12-14T02:56:26.472Z,7.25
2022-12-14T03:01:29.993Z,8.43
2022-12-14T03:06:32.158Z,8.50
2022-12-14T03:11:48.787Z,7.55
2022-12-14T03:16:52.305Z,8.13
2022-12-14T03:21:58.740Z,8.15
2022-12-14T03:27:16.574Z,8.10
2022-12-14T03:32:23.074Z,8.50
2022-12-14T03:37:40.339Z,8.65
2022-12-14T03:42:53.317Z,8.77
2022-12-14T03:48:33.498Z,9.68
2022-12-14T03:53:45.192Z,8.77
2022-12-14T03:58:59.994Z,8.50
2022-12-14T04:04:12.682Z,8.07
2022-12-14T04:09:30.020Z,7.88
2022-12-14T04:14:55.415Z,8.95
2022-12-14T04:20:18.048Z,9.00
2022-12-14T04:25:44.051Z,9.25
2022-12-14T04:30:46.374Z,8.43
2022-12-14T04:35:49.568Z,9.20
2022-12-14T04:40:54.736Z,8.55
2022-12-14T04:46:09.738Z,9.10
2022-12-14T04:51:17.866Z,8.77
2022-12-14T04:56:29.140Z,8.88
2022-12-14T05:01:49.063Z,8.95
2022-12-14T05:07:24.018Z,9.65
2022-12-14T05:12:49.847Z,8.43
2022-12-14T05:17:52.406Z,8.50
2022-12-14T05:22:54.588Z,9.32
2022-12-14T05:27:56.758Z,8.48
2022-12-14T05:32:58.843Z,9.10
2022-12-14T05:38:01.007Z,8.95
2022-12-14T05:43:05.088Z,8.77
2022-12-14T05:48:07.090Z,8.90
2022-12-14T05:53:09.174Z,9.02
2022-12-14T05:58:11.322Z,9.07
2022-12-14T06:03:13.281Z,9.63
2022-12-14T06:08:15.273Z,8.38
2022-12-14T06:13:17.280Z,8.88
2022-12-14T06:18:19.741Z,9.95
2022-12-14T06:23:21.741Z,9.98
2022-12-14T06:28:24.266Z,9.20
2022-12-14T06:33:27.025Z,10.55
2022-12-14T06:38:29.603Z,9.98
2022-12-14T06:43:31.770Z,9.27
2022-12-14T06:48:33.794Z,9.77
2022-12-14T06:53:36.205Z,9.35
2022-12-14T06:58:38.783Z,10.45
2022-12-14T07:03:42.167Z,10.68
2022-12-14T07:08:44.502Z,10.95
2022-12-14T07:13:48.934Z,10.05
2022-12-14T07:18:51.922Z,10.13
2022-12-14T07:23:53.968Z,10.02
2022-12-14T07:28:58.270Z,10.60
2022-12-14T07:34:00.407Z,10.18
2022-12-14T07:39:02.562Z,10.77
2022-12-14T07:44:05.306Z,10.93
2022-12-14T07:49:07.957Z,10.10
2022-12-14T07:54:11.485Z,10.57
2022-12-14T07:59:16.422Z,11.93
2022-12-14T08:04:19.945Z,10.20
2022-12-14T08:09:22.039Z,10.52
2022-12-14T08:14:24.053Z,10.00
2022-12-14T08:19:26.142Z,9.40
2022-12-14T08:24:28.123Z,9.90
2022-12-14T08:29:30.222Z,10.30
2022-12-14T08:34:32.250Z,10.80
2022-12-14T08:39:34.289Z,10.93
2022-12-14T08:44:36.372Z,10.57
2022-12-14T08:49:38.444Z,12.25
2022-12-14T08:54:40.431Z,12.13
2022-12-14T09:05:05.159Z,12.05
2022-12-14T09:10:11.084Z,12.95
2022-12-14T09:15:14.209Z,12.07
2022-12-14T09:20:17.386Z,10.98
2022-12-14T09:25:19.495Z,11.80
2022-12-14T09:30:26.355Z,11.05
2022-12-14T09:35:28.939Z,10.95
2022-12-14T09:40:32.904Z,9.95
2022-12-14T09:45:48.665Z,10.32
2022-12-14T09:50:52.896Z,10.52
2022-12-14T09:55:57.278Z,9.75
2022-12-14T10:01:22.214Z,10.23
2022-12-14T10:06:51.636Z,10.15
2022-12-14T10:12:21.351Z,9.88
2022-12-14T10:17:51.287Z,9.38
2022-12-14T10:22:54.472Z,11.50
2022-12-14T10:28:15.526Z,9.57
2022-12-14T10:33:27.794Z,9.43
2022-12-14T10:39:03.046Z,9.50
2022-12-14T10:44:26.712Z,9.23
2022-12-14T10:49:50.394Z,9.40
2022-12-14T10:54:55.759Z,9.63
2022-12-14T11:00:08.626Z,8.95
2022-12-14T11:05:17.358Z,8.95
2022-12-14T11:10:32.366Z,8.85
2022-12-14T11:15:43.316Z,9.77
2022-12-14T11:21:00.306Z,8.63
2022-12-14T11:26:05.044Z,8.75
2022-12-14T11:31:11.462Z,8.77
2022-12-14T11:36:24.647Z,9.75
2022-12-14T11:41:34.167Z,8.00
2022-12-14T11:47:03.097Z,9.30
2022-12-14T11:52:05.260Z,8.60
2022-12-14T11:57:13.235Z,8.18
2022-12-14T12:02:18.465Z,9.95
2022-12-14T12:07:37.018Z,9.35
2022-12-14T12:12:55.197Z,8.63
2022-12-14T12:18:03.810Z,8.98
2022-12-14T12:23:19.324Z,8.63
2022-12-14T12:28:29.889Z,9.68
2022-12-14T12:33:42.182Z,9.88
2022-12-14T12:39:16.842Z,8.73
2022-12-14T12:44:24.626Z,9.13
2022-12-14T12:49:26.795Z,9.57
2022-12-14T12:54:41.801Z,9.02
2022-12-14T12:59:50.123Z,8.23
2022-12-14T13:04:53.305Z,9.35
2022-12-14T13:10:13.894Z,9.90
2022-12-14T13:15:34.623Z,8.73
2022-12-14T13:20:36.768Z,8.23
2022-12-14T13:26:03.519Z,7.75
2022-12-14T13:31:20.843Z,8.52
2022-12-14T13:36:42.023Z,7.80
2022-12-14T13:42:01.237Z,8.85
2022-12-14T13:47:06.037Z,7.85
2022-12-14T13:52:31.220Z,7.90
2022-12-14T13:57:33.340Z,8.60
2022-12-14T14:02:39.708Z,8.55
2022-12-14T14:07:55.805Z,8.73
2022-12-14T14:12:59.327Z,8.82
2022-12-14T14:18:13.421Z,9.05
2022-12-14T14:23:15.761Z,9.35
2022-12-14T14:28:22.969Z,8.82
2022-12-14T14:33:47.847Z,8.70
2022-12-14T14:38:51.556Z,9.48
2022-12-14T14:43:58.847Z,8.40
2022-12-14T14:49:01.126Z,9.50
2022-12-14T14:59:58.442Z,8.07
2022-12-14T15:05:24.707Z,9.05
2022-12-14T15:10:38.383Z,9.20
2022-12-14T15:15:44.891Z,8.65
2022-12-14T15:21:08.142Z,9.68
2022-12-14T15:26:17.387Z,11.20
2022-12-14T15:31:30.157Z,11.00
2022-12-14T15:36:35.661Z,11.57
2022-12-14T15:41:37.699Z,11.30
2022-12-14T15:46:40.261Z,11.40
2022-12-14T15:51:43.969Z,11.43
2022-12-14T15:56:48.814Z,12.73
2022-12-14T16:02:20.612Z,13.27
2022-12-14T16:07:39.647Z,13.57
2022-12-14T16:12:45.880Z,12.18
2022-12-14T16:17:52.793Z,11.40
2022-12-14T16:23:19.759Z,12.82
2022-12-14T16:28:36.926Z,13.65
2022-12-14T16:33:41.407Z,12.57
2022-12-14T16:39:01.629Z,13.85
2022-12-14T16:44:07.386Z,14.70
2022-12-14T16:49:32.443Z,28.23
2022-12-14T16:54:34.953Z,28.85
2022-12-14T16:59:41.154Z,21.70
2022-12-14T17:04:43.230Z,17.52
2022-12-14T17:09:45.569Z,14.75
2022-12-14T17:14:50.163Z,15.18
2022-12-14T17:19:52.622Z,14.70
2022-12-14T17:24:55.092Z,15.80
2022-12-14T17:29:57.551Z,15.98
2022-12-14T17:35:00.676Z,16.73
2022-12-14T17:40:04.076Z,14.98
2022-12-14T17:45:07.489Z,15.13
2022-12-14T17:50:13.628Z,17.17
2022-12-14T17:55:18.606Z,15.10
2022-12-14T18:00:45.532Z,14.95
2022-12-14T18:05:49.431Z,14.43
2022-12-14T18:10:55.291Z,13.82
2022-12-14T18:15:57.512Z,16.27
2022-12-14T18:21:01.772Z,19.52
2022-12-14T18:26:05.245Z,17.85
2022-12-14T18:31:32.273Z,16.55
2022-12-14T18:36:34.627Z,21.63
2022-12-14T18:41:36.727Z,19.95
2022-12-14T18:46:39.518Z,16.30
2022-12-14T18:51:44.283Z,34.42
2022-12-14T18:56:46.476Z,26.08
2022-12-14T19:01:52.353Z,19.27
2022-12-14T19:06:54.722Z,38.25
2022-12-14T19:11:57.011Z,17.45
2022-12-14T19:16:59.158Z,21.90
2022-12-14T19:22:01.605Z,17.92
2022-12-14T19:27:04.284Z,15.23
2022-12-14T19:32:06.609Z,17.40
2022-12-14T19:37:08.858Z,20.38
2022-12-14T19:42:10.994Z,27.73
2022-12-14T19:47:13.908Z,20.83
2022-12-14T19:52:16.050Z,22.52
2022-12-14T19:57:18.049Z,21.25
2022-12-14T20:02:20.439Z,21.45
2022-12-14T20:07:22.765Z,20.95
2022-12-14T20:12:24.901Z,21.00
2022-12-14T20:17:27.084Z,23.17
2022-12-14T20:22:29.206Z,24.33
2022-12-14T20:27:34.818Z,26.75
2022-12-14T20:32:41.167Z,25.23
2022-12-14T20:37:43.216Z,22.13
2022-12-14T20:42:45.290Z,16.23
2022-12-14T20:47:47.359Z,15.18
2022-12-14T20:52:49.676Z,14.55
2022-12-14T20:57:51.734Z,15.05
2022-12-14T21:02:53.915Z,16.10
2022-12-14T21:07:56.063Z,15.73
2022-12-14T21:13:00.752Z,18.17
2022-12-14T21:18:06.339Z,19.42
2022-12-14T21:23:08.441Z,43.55
2022-12-14T21:28:10.500Z,18.83
2022-12-14T21:33:12.485Z,15.98
2022-12-14T21:38:14.493Z,16.27
2022-12-14T21:43:16.621Z,15.25
2022-12-14T21:48:18.676Z,18.08
2022-12-14T21:53:20.971Z,18.23
2022-12-14T21:58:24.623Z,28.38
2022-12-14T22:03:26.686Z,21.13
2022-12-14T22:08:30.409Z,21.08
2022-12-14T22:13:33.126Z,20.75
2022-12-14T22:18:35.414Z,19.60
2022-12-14T22:23:43.159Z,18.45
2022-12-14T22:28:50.017Z,16.52
2022-12-14T22:33:54.953Z,18.45
2022-12-14T22:38:58.782Z,16.40
2022-12-14T22:44:02.153Z,16.15
2022-12-14T22:49:04.521Z,15.25
2022-12-14T22:54:06.894Z,15.45
2022-12-14T22:59:25.210Z,15.30
2022-12-14T23:04:27.359Z,15.77
2022-12-14T23:09:47.850Z,15.30
2022-12-14T23:20:29.256Z,13.88
2022-12-14T23:25:52.527Z,13.95
2022-12-14T23:31:15.033Z,13.70
2022-12-14T23:36:35.848Z,14.65
2022-12-14T23:41:56.638Z,15.10
2022-12-14T23:47:17.306Z,14.70
2022-12-14T23:52:37.787Z,14.77
2022-12-14T23:57:58.219Z,15.50
